Terminal Aerodrome Forecast
Issued by NWS

Home | Current Version | Previous Version | Text Only | Print | Product List | Glossary On
Versions: 1 2 3 4 5 6 7 8 9 10 11 12 13 14 15 16 17 18 19 20 21 22 23 24 25 26 27 28 29
000
FTUS46 KLOX 231410 AAA
TAFWJF
TAF AMD
KWJF 231410Z 2314/2412 22014KT P6SM VCSH SCT025 BKN040 OVC070
     FM231500 26015KT P6SM VCTS SCT015CB OVC040
     FM240000 26012KT P6SM -SHRA BKN035
     FM240400 26010KT P6SM BKN050
     FM241000 27012KT P6SM BKN100=

USA.gov is the U.S. government's official web portal to all federal, state and local government web resources and services.